sensor_id;sensor_type;location;lat;lon;timestamp;P1;durP1;ratioP1;P2;durP2;ratioP2
67861;SDS011;54665;51.462;6.698;2023-07-13T00:01:49;8.52;;;1.50;;
67861;SDS011;54665;51.462;6.698;2023-07-13T00:03:49;4.83;;;1.50;;
67861;SDS011;54665;51.462;6.698;2023-07-13T00:05:57;5.50;;;1.53;;
67861;SDS011;54665;51.462;6.698;2023-07-13T00:07:58;6.47;;;1.60;;
67861;SDS011;54665;51.462;6.698;2023-07-13T00:09:58;5.00;;;1.17;;
67861;SDS011;54665;51.462;6.698;2023-07-13T00:11:58;4.33;;;1.10;;
67861;SDS011;54665;51.462;6.698;2023-07-13T00:13:59;5.57;;;1.50;;
67861;SDS011;54665;51.462;6.698;2023-07-13T00:15:59;3.97;;;1.35;;
67861;SDS011;54665;51.462;6.698;2023-07-13T00:17:59;12.37;;;1.83;;
67861;SDS011;54665;51.462;6.698;2023-07-13T00:20:00;4.80;;;1.30;;
67861;SDS011;54665;51.462;6.698;2023-07-13T00:22:00;4.03;;;1.30;;
67861;SDS011;54665;51.462;6.698;2023-07-13T00:24:00;4.23;;;1.20;;
67861;SDS011;54665;51.462;6.698;2023-07-13T00:26:01;4.93;;;1.17;;
67861;SDS011;54665;51.462;6.698;2023-07-13T00:28:06;4.00;;;1.15;;
67861;SDS011;54665;51.462;6.698;2023-07-13T00:30:06;3.53;;;1.10;;
67861;SDS011;54665;51.462;6.698;2023-07-13T00:32:08;4.45;;;1.20;;
67861;SDS011;54665;51.462;6.698;2023-07-13T00:34:08;2.97;;;1.23;;
67861;SDS011;54665;51.462;6.698;2023-07-13T00:36:09;4.50;;;1.10;;
67861;SDS011;54665;51.462;6.698;2023-07-13T00:38:10;5.65;;;1.23;;
67861;SDS011;54665;51.462;6.698;2023-07-13T00:40:13;2.97;;;1.07;;
67861;SDS011;54665;51.462;6.698;2023-07-13T00:42:14;4.43;;;1.30;;
67861;SDS011;54665;51.462;6.698;2023-07-13T00:44:15;3.40;;;1.13;;
67861;SDS011;54665;51.462;6.698;2023-07-13T00:46:19;4.57;;;1.23;;
67861;SDS011;54665;51.462;6.698;2023-07-13T00:48:29;4.00;;;1.40;;
67861;SDS011;54665;51.462;6.698;2023-07-13T00:50:34;4.93;;;1.35;;
67861;SDS011;54665;51.462;6.698;2023-07-13T00:52:35;5.47;;;1.13;;
67861;SDS011;54665;51.462;6.698;2023-07-13T00:54:41;4.18;;;1.30;;
67861;SDS011;54665;51.462;6.698;2023-07-13T00:56:45;5.67;;;1.23;;
67861;SDS011;54665;51.462;6.698;2023-07-13T00:58:48;6.88;;;1.30;;
67861;SDS011;54665;51.462;6.698;2023-07-13T01:00:49;3.47;;;1.20;;
67861;SDS011;54665;51.462;6.698;2023-07-13T01:02:51;4.32;;;1.30;;
67861;SDS011;54665;51.462;6.698;2023-07-13T01:04:52;4.33;;;1.20;;
67861;SDS011;54665;51.462;6.698;2023-07-13T01:06:52;5.27;;;1.30;;
67861;SDS011;54665;51.462;6.698;2023-07-13T01:08:53;3.75;;;1.50;;
67861;SDS011;54665;51.462;6.698;2023-07-13T01:10:55;3.23;;;1.30;;
67861;SDS011;54665;51.462;6.698;2023-07-13T01:12:57;5.00;;;1.20;;
67861;SDS011;54665;51.462;6.698;2023-07-13T01:14:57;3.90;;;1.20;;
67861;SDS011;54665;51.462;6.698;2023-07-13T01:16:58;3.25;;;1.27;;
67861;SDS011;54665;51.462;6.698;2023-07-13T01:18:59;5.07;;;1.30;;
67861;SDS011;54665;51.462;6.698;2023-07-13T01:21:01;2.87;;;1.10;;
67861;SDS011;54665;51.462;6.698;2023-07-13T01:23:06;3.13;;;1.25;;
67861;SDS011;54665;51.462;6.698;2023-07-13T01:25:07;4.07;;;1.35;;
67861;SDS011;54665;51.462;6.698;2023-07-13T01:27:08;4.37;;;1.10;;
67861;SDS011;54665;51.462;6.698;2023-07-13T01:29:10;6.72;;;1.60;;
67861;SDS011;54665;51.462;6.698;2023-07-13T01:31:12;5.63;;;1.30;;
67861;SDS011;54665;51.462;6.698;2023-07-13T01:33:14;5.30;;;1.13;;
67861;SDS011;54665;51.462;6.698;2023-07-13T01:35:15;5.68;;;1.10;;
67861;SDS011;54665;51.462;6.698;2023-07-13T01:37:16;3.37;;;1.07;;
67861;SDS011;54665;51.462;6.698;2023-07-13T01:39:17;5.03;;;1.13;;
67861;SDS011;54665;51.462;6.698;2023-07-13T01:41:17;6.93;;;1.30;;
67861;SDS011;54665;51.462;6.698;2023-07-13T01:43:18;4.37;;;1.30;;
67861;SDS011;54665;51.462;6.698;2023-07-13T01:45:18;3.90;;;1.30;;
67861;SDS011;54665;51.462;6.698;2023-07-13T01:47:19;4.45;;;1.20;;
67861;SDS011;54665;51.462;6.698;2023-07-13T01:49:19;6.97;;;1.43;;
67861;SDS011;54665;51.462;6.698;2023-07-13T01:51:20;7.17;;;1.30;;
67861;SDS011;54665;51.462;6.698;2023-07-13T01:53:20;4.78;;;1.10;;
67861;SDS011;54665;51.462;6.698;2023-07-13T01:55:21;3.97;;;1.40;;
67861;SDS011;54665;51.462;6.698;2023-07-13T01:57:21;7.57;;;1.70;;
67861;SDS011;54665;51.462;6.698;2023-07-13T01:59:22;3.23;;;1.20;;
67861;SDS011;54665;51.462;6.698;2023-07-13T02:01:22;5.67;;;1.17;;
67861;SDS011;54665;51.462;6.698;2023-07-13T02:03:22;3.77;;;1.20;;
67861;SDS011;54665;51.462;6.698;2023-07-13T02:05:23;5.57;;;1.33;;
67861;SDS011;54665;51.462;6.698;2023-07-13T02:07:23;5.07;;;1.20;;
67861;SDS011;54665;51.462;6.698;2023-07-13T02:09:23;3.17;;;1.30;;
67861;SDS011;54665;51.462;6.698;2023-07-13T02:11:24;4.23;;;1.30;;
67861;SDS011;54665;51.462;6.698;2023-07-13T02:13:24;4.20;;;1.20;;
67861;SDS011;54665;51.462;6.698;2023-07-13T02:15:25;3.60;;;1.20;;
67861;SDS011;54665;51.462;6.698;2023-07-13T02:17:26;5.30;;;1.40;;
67861;SDS011;54665;51.462;6.698;2023-07-13T02:19:26;4.90;;;1.50;;
67861;SDS011;54665;51.462;6.698;2023-07-13T02:21:27;5.33;;;1.40;;
67861;SDS011;54665;51.462;6.698;2023-07-13T02:23:27;2.80;;;1.30;;
67861;SDS011;54665;51.462;6.698;2023-07-13T02:25:27;4.93;;;1.33;;
67861;SDS011;54665;51.462;6.698;2023-07-13T02:27:28;3.73;;;1.27;;
67861;SDS011;54665;51.462;6.698;2023-07-13T02:29:28;3.50;;;1.40;;
67861;SDS011;54665;51.462;6.698;2023-07-13T02:31:28;4.57;;;1.40;;
67861;SDS011;54665;51.462;6.698;2023-07-13T02:33:28;6.47;;;1.50;;
67861;SDS011;54665;51.462;6.698;2023-07-13T02:35:29;6.50;;;1.40;;
67861;SDS011;54665;51.462;6.698;2023-07-13T02:37:31;6.43;;;1.60;;
67861;SDS011;54665;51.462;6.698;2023-07-13T02:39:31;5.30;;;1.50;;
67861;SDS011;54665;51.462;6.698;2023-07-13T02:41:32;6.40;;;1.40;;
67861;SDS011;54665;51.462;6.698;2023-07-13T02:43:33;3.60;;;1.30;;
67861;SDS011;54665;51.462;6.698;2023-07-13T02:45:34;5.43;;;1.20;;
67861;SDS011;54665;51.462;6.698;2023-07-13T02:47:34;3.70;;;1.70;;
67861;SDS011;54665;51.462;6.698;2023-07-13T02:49:35;3.35;;;1.25;;
67861;SDS011;54665;51.462;6.698;2023-07-13T02:51:36;6.50;;;1.40;;
67861;SDS011;54665;51.462;6.698;2023-07-13T02:53:36;4.72;;;1.40;;
67861;SDS011;54665;51.462;6.698;2023-07-13T02:55:37;4.43;;;1.50;;
67861;SDS011;54665;51.462;6.698;2023-07-13T02:57:37;5.30;;;1.50;;
67861;SDS011;54665;51.462;6.698;2023-07-13T02:59:38;5.10;;;1.30;;
67861;SDS011;54665;51.462;6.698;2023-07-13T03:01:38;5.37;;;1.53;;
67861;SDS011;54665;51.462;6.698;2023-07-13T03:03:38;4.27;;;1.60;;
67861;SDS011;54665;51.462;6.698;2023-07-13T03:05:40;5.63;;;1.40;;
67861;SDS011;54665;51.462;6.698;2023-07-13T03:07:41;4.45;;;1.50;;
67861;SDS011;54665;51.462;6.698;2023-07-13T03:09:43;5.75;;;1.88;;
67861;SDS011;54665;51.462;6.698;2023-07-13T03:11:43;3.60;;;1.40;;
67861;SDS011;54665;51.462;6.698;2023-07-13T03:14:05;3.97;;;1.40;;
67861;SDS011;54665;51.462;6.698;2023-07-13T03:16:09;6.03;;;1.30;;
67861;SDS011;54665;51.462;6.698;2023-07-13T03:18:10;4.90;;;1.55;;
67861;SDS011;54665;51.462;6.698;2023-07-13T03:20:11;5.53;;;1.70;;
67861;SDS011;54665;51.462;6.698;2023-07-13T03:22:12;5.67;;;1.50;;
67861;SDS011;54665;51.462;6.698;2023-07-13T03:24:15;4.45;;;1.50;;
67861;SDS011;54665;51.462;6.698;2023-07-13T03:26:17;5.57;;;1.50;;
67861;SDS011;54665;51.462;6.698;2023-07-13T03:28:18;5.55;;;1.55;;
67861;SDS011;54665;51.462;6.698;2023-07-13T03:30:19;7.03;;;1.50;;
67861;SDS011;54665;51.462;6.698;2023-07-13T03:32:19;5.93;;;1.50;;
67861;SDS011;54665;51.462;6.698;2023-07-13T03:34:19;5.17;;;1.60;;
67861;SDS011;54665;51.462;6.698;2023-07-13T03:36:21;8.70;;;1.67;;
67861;SDS011;54665;51.462;6.698;2023-07-13T03:38:24;5.60;;;1.60;;
67861;SDS011;54665;51.462;6.698;2023-07-13T03:40:26;5.60;;;1.48;;
67861;SDS011;54665;51.462;6.698;2023-07-13T03:42:27;5.07;;;1.50;;
67861;SDS011;54665;51.462;6.698;2023-07-13T03:44:28;4.80;;;1.60;;
67861;SDS011;54665;51.462;6.698;2023-07-13T03:46:31;5.10;;;1.35;;
67861;SDS011;54665;51.462;6.698;2023-07-13T03:48:31;4.60;;;1.57;;
67861;SDS011;54665;51.462;6.698;2023-07-13T03:50:32;4.45;;;1.50;;
67861;SDS011;54665;51.462;6.698;2023-07-13T03:52:32;4.47;;;1.57;;
67861;SDS011;54665;51.462;6.698;2023-07-13T03:54:32;6.07;;;1.50;;
67861;SDS011;54665;51.462;6.698;2023-07-13T03:56:33;4.32;;;1.40;;
67861;SDS011;54665;51.462;6.698;2023-07-13T03:58:36;4.50;;;1.60;;
67861;SDS011;54665;51.462;6.698;2023-07-13T04:00:46;4.75;;;1.50;;
67861;SDS011;54665;51.462;6.698;2023-07-13T04:02:46;4.50;;;1.60;;
67861;SDS011;54665;51.462;6.698;2023-07-13T04:04:46;6.33;;;1.63;;
67861;SDS011;54665;51.462;6.698;2023-07-13T04:06:47;6.88;;;1.52;;
67861;SDS011;54665;51.462;6.698;2023-07-13T04:08:48;6.17;;;1.67;;
67861;SDS011;54665;51.462;6.698;2023-07-13T04:10:50;3.65;;;1.60;;
67861;SDS011;54665;51.462;6.698;2023-07-13T04:12:50;5.50;;;1.57;;
67861;SDS011;54665;51.462;6.698;2023-07-13T04:14:51;4.72;;;1.63;;
67861;SDS011;54665;51.462;6.698;2023-07-13T04:16:51;5.80;;;1.80;;
67861;SDS011;54665;51.462;6.698;2023-07-13T04:18:52;6.10;;;1.93;;
67861;SDS011;54665;51.462;6.698;2023-07-13T04:20:52;3.95;;;1.45;;
67861;SDS011;54665;51.462;6.698;2023-07-13T04:22:53;4.67;;;1.50;;
67861;SDS011;54665;51.462;6.698;2023-07-13T04:24:53;5.87;;;1.60;;
67861;SDS011;54665;51.462;6.698;2023-07-13T04:26:53;4.50;;;1.53;;
67861;SDS011;54665;51.462;6.698;2023-07-13T04:28:54;5.23;;;1.80;;
67861;SDS011;54665;51.462;6.698;2023-07-13T04:30:54;5.65;;;1.65;;
67861;SDS011;54665;51.462;6.698;2023-07-13T04:32:55;5.73;;;1.50;;
67861;SDS011;54665;51.462;6.698;2023-07-13T04:34:55;4.07;;;1.73;;
67861;SDS011;54665;51.462;6.698;2023-07-13T04:36:55;5.37;;;1.47;;
67861;SDS011;54665;51.462;6.698;2023-07-13T04:38:55;6.30;;;1.60;;
67861;SDS011;54665;51.462;6.698;2023-07-13T04:40:56;6.73;;;2.00;;
67861;SDS011;54665;51.462;6.698;2023-07-13T04:42:58;6.25;;;1.83;;
67861;SDS011;54665;51.462;6.698;2023-07-13T04:44:58;9.33;;;1.90;;
67861;SDS011;54665;51.462;6.698;2023-07-13T04:46:58;5.77;;;1.90;;
67861;SDS011;54665;51.462;6.698;2023-07-13T04:48:59;6.75;;;1.80;;
67861;SDS011;54665;51.462;6.698;2023-07-13T04:50:59;7.93;;;2.07;;
67861;SDS011;54665;51.462;6.698;2023-07-13T04:53:00;6.47;;;1.80;;
67861;SDS011;54665;51.462;6.698;2023-07-13T04:55:00;5.33;;;2.10;;
67861;SDS011;54665;51.462;6.698;2023-07-13T04:57:00;5.93;;;1.60;;
67861;SDS011;54665;51.462;6.698;2023-07-13T04:59:01;4.87;;;1.93;;
67861;SDS011;54665;51.462;6.698;2023-07-13T05:01:02;7.57;;;1.60;;
67861;SDS011;54665;51.462;6.698;2023-07-13T05:03:03;5.63;;;1.70;;
67861;SDS011;54665;51.462;6.698;2023-07-13T05:05:04;6.97;;;2.17;;
67861;SDS011;54665;51.462;6.698;2023-07-13T05:07:04;6.30;;;1.70;;
67861;SDS011;54665;51.462;6.698;2023-07-13T05:09:05;8.07;;;2.00;;
67861;SDS011;54665;51.462;6.698;2023-07-13T05:11:06;6.67;;;1.60;;
67861;SDS011;54665;51.462;6.698;2023-07-13T05:13:06;6.60;;;1.70;;
67861;SDS011;54665;51.462;6.698;2023-07-13T05:15:06;8.67;;;1.73;;
67861;SDS011;54665;51.462;6.698;2023-07-13T05:17:07;7.57;;;1.80;;
67861;SDS011;54665;51.462;6.698;2023-07-13T05:19:08;6.87;;;2.40;;
67861;SDS011;54665;51.462;6.698;2023-07-13T05:21:09;4.97;;;1.90;;
67861;SDS011;54665;51.462;6.698;2023-07-13T05:23:10;11.73;;;2.85;;
67861;SDS011;54665;51.462;6.698;2023-07-13T05:25:11;6.10;;;1.80;;
67861;SDS011;54665;51.462;6.698;2023-07-13T05:27:11;7.27;;;2.00;;
67861;SDS011;54665;51.462;6.698;2023-07-13T05:29:12;7.22;;;2.25;;
67861;SDS011;54665;51.462;6.698;2023-07-13T05:31:12;9.77;;;2.20;;
67861;SDS011;54665;51.462;6.698;2023-07-13T05:33:13;7.28;;;2.20;;
67861;SDS011;54665;51.462;6.698;2023-07-13T05:35:13;6.93;;;2.20;;
67861;SDS011;54665;51.462;6.698;2023-07-13T05:37:14;6.83;;;2.17;;
67861;SDS011;54665;51.462;6.698;2023-07-13T05:39:14;6.33;;;2.13;;
67861;SDS011;54665;51.462;6.698;2023-07-13T05:41:15;5.43;;;2.00;;
67861;SDS011;54665;51.462;6.698;2023-07-13T05:43:15;7.50;;;1.97;;
67861;SDS011;54665;51.462;6.698;2023-07-13T05:45:16;8.03;;;1.97;;
67861;SDS011;54665;51.462;6.698;2023-07-13T05:47:16;7.30;;;2.10;;
67861;SDS011;54665;51.462;6.698;2023-07-13T05:49:16;7.63;;;2.10;;
67861;SDS011;54665;51.462;6.698;2023-07-13T05:51:16;7.13;;;2.20;;
67861;SDS011;54665;51.462;6.698;2023-07-13T05:53:17;5.63;;;2.07;;
67861;SDS011;54665;51.462;6.698;2023-07-13T05:55:17;7.63;;;2.30;;
67861;SDS011;54665;51.462;6.698;2023-07-13T05:57:18;7.55;;;1.95;;
67861;SDS011;54665;51.462;6.698;2023-07-13T05:59:18;6.90;;;1.80;;
67861;SDS011;54665;51.462;6.698;2023-07-13T06:01:18;7.23;;;2.40;;
67861;SDS011;54665;51.462;6.698;2023-07-13T06:03:19;6.37;;;2.00;;
67861;SDS011;54665;51.462;6.698;2023-07-13T06:05:19;6.10;;;2.17;;
67861;SDS011;54665;51.462;6.698;2023-07-13T06:07:19;8.80;;;2.00;;
67861;SDS011;54665;51.462;6.698;2023-07-13T06:09:20;9.07;;;2.33;;
67861;SDS011;54665;51.462;6.698;2023-07-13T06:11:21;6.53;;;2.10;;
67861;SDS011;54665;51.462;6.698;2023-07-13T06:13:24;7.00;;;2.10;;
67861;SDS011;54665;51.462;6.698;2023-07-13T06:15:24;8.87;;;2.33;;
67861;SDS011;54665;51.462;6.698;2023-07-13T06:17:25;7.50;;;2.43;;
67861;SDS011;54665;51.462;6.698;2023-07-13T06:19:25;8.90;;;2.23;;
67861;SDS011;54665;51.462;6.698;2023-07-13T06:21:25;7.47;;;2.43;;
67861;SDS011;54665;51.462;6.698;2023-07-13T06:23:25;6.27;;;2.23;;
67861;SDS011;54665;51.462;6.698;2023-07-13T06:25:26;7.43;;;2.70;;
67861;SDS011;54665;51.462;6.698;2023-07-13T06:27:26;7.47;;;2.60;;
67861;SDS011;54665;51.462;6.698;2023-07-13T06:29:27;9.27;;;2.50;;
67861;SDS011;54665;51.462;6.698;2023-07-13T06:31:27;8.00;;;2.30;;
67861;SDS011;54665;51.462;6.698;2023-07-13T06:33:27;9.70;;;2.67;;
67861;SDS011;54665;51.462;6.698;2023-07-13T06:35:28;8.83;;;2.60;;
67861;SDS011;54665;51.462;6.698;2023-07-13T06:37:28;9.10;;;2.47;;
67861;SDS011;54665;51.462;6.698;2023-07-13T06:39:28;6.63;;;2.27;;
67861;SDS011;54665;51.462;6.698;2023-07-13T06:41:29;10.37;;;2.70;;
67861;SDS011;54665;51.462;6.698;2023-07-13T06:43:29;6.78;;;2.63;;
67861;SDS011;54665;51.462;6.698;2023-07-13T06:45:29;9.13;;;2.50;;
67861;SDS011;54665;51.462;6.698;2023-07-13T06:47:29;7.37;;;2.53;;
67861;SDS011;54665;51.462;6.698;2023-07-13T06:49:30;5.00;;;2.57;;
67861;SDS011;54665;51.462;6.698;2023-07-13T06:51:30;5.83;;;2.53;;
67861;SDS011;54665;51.462;6.698;2023-07-13T06:53:31;7.15;;;2.88;;
67861;SDS011;54665;51.462;6.698;2023-07-13T06:55:31;8.23;;;3.10;;
67861;SDS011;54665;51.462;6.698;2023-07-13T06:57:31;7.00;;;2.80;;
67861;SDS011;54665;51.462;6.698;2023-07-13T06:59:32;7.60;;;3.27;;
67861;SDS011;54665;51.462;6.698;2023-07-13T07:01:32;11.00;;;3.53;;
67861;SDS011;54665;51.462;6.698;2023-07-13T07:03:32;9.17;;;3.80;;
67861;SDS011;54665;51.462;6.698;2023-07-13T07:05:32;6.07;;;3.30;;
67861;SDS011;54665;51.462;6.698;2023-07-13T07:07:33;9.40;;;3.08;;
67861;SDS011;54665;51.462;6.698;2023-07-13T07:09:33;7.77;;;3.10;;
67861;SDS011;54665;51.462;6.698;2023-07-13T07:11:33;10.50;;;3.50;;
67861;SDS011;54665;51.462;6.698;2023-07-13T07:13:34;7.87;;;3.90;;
67861;SDS011;54665;51.462;6.698;2023-07-13T07:15:34;11.27;;;3.87;;
67861;SDS011;54665;51.462;6.698;2023-07-13T07:17:35;8.05;;;3.65;;
67861;SDS011;54665;51.462;6.698;2023-07-13T07:19:35;11.30;;;3.60;;
67861;SDS011;54665;51.462;6.698;2023-07-13T07:21:35;8.30;;;3.60;;
67861;SDS011;54665;51.462;6.698;2023-07-13T07:23:36;8.73;;;3.80;;
67861;SDS011;54665;51.462;6.698;2023-07-13T07:25:36;8.33;;;3.70;;
67861;SDS011;54665;51.462;6.698;2023-07-13T07:27:36;11.67;;;3.93;;
67861;SDS011;54665;51.462;6.698;2023-07-13T07:29:37;9.82;;;4.10;;
67861;SDS011;54665;51.462;6.698;2023-07-13T07:31:37;9.10;;;4.03;;
67861;SDS011;54665;51.462;6.698;2023-07-13T07:33:37;9.23;;;3.63;;
67861;SDS011;54665;51.462;6.698;2023-07-13T07:35:38;8.70;;;3.80;;
67861;SDS011;54665;51.462;6.698;2023-07-13T07:37:38;11.73;;;4.13;;
67861;SDS011;54665;51.462;6.698;2023-07-13T07:39:39;9.55;;;4.03;;
67861;SDS011;54665;51.462;6.698;2023-07-13T07:41:39;9.43;;;4.03;;
67861;SDS011;54665;51.462;6.698;2023-07-13T07:43:39;8.63;;;4.20;;
67861;SDS011;54665;51.462;6.698;2023-07-13T07:45:40;8.33;;;4.20;;
67861;SDS011;54665;51.462;6.698;2023-07-13T07:47:40;8.98;;;3.85;;
67861;SDS011;54665;51.462;6.698;2023-07-13T07:49:41;12.20;;;4.27;;
67861;SDS011;54665;51.462;6.698;2023-07-13T07:51:41;11.30;;;4.27;;
67861;SDS011;54665;51.462;6.698;2023-07-13T07:53:41;9.27;;;4.00;;
67861;SDS011;54665;51.462;6.698;2023-07-13T07:55:42;9.97;;;3.70;;
67861;SDS011;54665;51.462;6.698;2023-07-13T07:57:42;10.20;;;4.33;;
67861;SDS011;54665;51.462;6.698;2023-07-13T07:59:42;8.23;;;4.23;;
67861;SDS011;54665;51.462;6.698;2023-07-13T08:01:42;11.10;;;4.18;;
67861;SDS011;54665;51.462;6.698;2023-07-13T08:03:43;10.63;;;4.10;;
67861;SDS011;54665;51.462;6.698;2023-07-13T08:05:43;10.20;;;4.10;;
67861;SDS011;54665;51.462;6.698;2023-07-13T08:07:43;12.67;;;4.13;;
67861;SDS011;54665;51.462;6.698;2023-07-13T08:09:44;9.67;;;4.00;;
67861;SDS011;54665;51.462;6.698;2023-07-13T08:11:44;9.67;;;4.10;;
67861;SDS011;54665;51.462;6.698;2023-07-13T08:13:44;8.73;;;4.20;;
67861;SDS011;54665;51.462;6.698;2023-07-13T08:15:45;6.83;;;4.00;;
67861;SDS011;54665;51.462;6.698;2023-07-13T08:17:49;9.65;;;4.28;;
67861;SDS011;54665;51.462;6.698;2023-07-13T08:19:50;9.68;;;3.97;;
67861;SDS011;54665;51.462;6.698;2023-07-13T08:21:50;8.27;;;4.30;;
67861;SDS011;54665;51.462;6.698;2023-07-13T08:23:51;8.27;;;4.40;;
67861;SDS011;54665;51.462;6.698;2023-07-13T08:25:51;7.87;;;4.23;;
67861;SDS011;54665;51.462;6.698;2023-07-13T08:27:52;7.75;;;4.35;;
67861;SDS011;54665;51.462;6.698;2023-07-13T08:29:53;7.17;;;4.50;;
67861;SDS011;54665;51.462;6.698;2023-07-13T08:31:54;10.40;;;4.70;;
67861;SDS011;54665;51.462;6.698;2023-07-13T08:33:54;9.83;;;4.80;;
67861;SDS011;54665;51.462;6.698;2023-07-13T08:35:54;9.80;;;4.90;;
67861;SDS011;54665;51.462;6.698;2023-07-13T08:37:54;9.03;;;4.60;;
67861;SDS011;54665;51.462;6.698;2023-07-13T08:39:55;12.77;;;4.33;;
67861;SDS011;54665;51.462;6.698;2023-07-13T08:41:57;9.70;;;4.70;;
67861;SDS011;54665;51.462;6.698;2023-07-13T08:44:01;9.27;;;4.70;;
67861;SDS011;54665;51.462;6.698;2023-07-13T08:46:08;8.75;;;4.53;;
67861;SDS011;54665;51.462;6.698;2023-07-13T08:50:27;9.02;;;4.53;;
67861;SDS011;54665;51.462;6.698;2023-07-13T08:52:36;10.23;;;4.72;;
67861;SDS011;54665;51.462;6.698;2023-07-13T08:54:41;8.15;;;4.43;;
67861;SDS011;54665;51.462;6.698;2023-07-13T08:56:45;8.45;;;4.10;;
67861;SDS011;54665;51.462;6.698;2023-07-13T08:58:47;6.17;;;3.90;;
67861;SDS011;54665;51.462;6.698;2023-07-13T09:00:59;6.63;;;3.90;;
67861;SDS011;54665;51.462;6.698;2023-07-13T09:03:06;7.28;;;3.67;;
67861;SDS011;54665;51.462;6.698;2023-07-13T09:05:22;7.43;;;3.60;;
67861;SDS011;54665;51.462;6.698;2023-07-13T09:10:10;9.10;;;3.60;;
67861;SDS011;54665;51.462;6.698;2023-07-13T09:12:14;10.63;;;3.67;;
67861;SDS011;54665;51.462;6.698;2023-07-13T09:16:41;9.55;;;3.97;;
67861;SDS011;54665;51.462;6.698;2023-07-13T09:18:42;9.80;;;3.90;;
67861;SDS011;54665;51.462;6.698;2023-07-13T09:20:48;7.03;;;3.85;;
67861;SDS011;54665;51.462;6.698;2023-07-13T09:22:51;7.13;;;3.90;;
67861;SDS011;54665;51.462;6.698;2023-07-13T09:24:57;7.20;;;3.95;;
67861;SDS011;54665;51.462;6.698;2023-07-13T09:27:09;9.60;;;4.20;;
67861;SDS011;54665;51.462;6.698;2023-07-13T09:29:17;7.78;;;3.65;;
67861;SDS011;54665;51.462;6.698;2023-07-13T09:31:34;7.47;;;3.90;;
67861;SDS011;54665;51.462;6.698;2023-07-13T09:33:38;8.75;;;4.05;;
67861;SDS011;54665;51.462;6.698;2023-07-13T09:35:38;9.93;;;3.90;;
67861;SDS011;54665;51.462;6.698;2023-07-13T09:37:39;7.80;;;3.77;;
67861;SDS011;54665;51.462;6.698;2023-07-13T09:39:39;7.13;;;3.60;;
67861;SDS011;54665;51.462;6.698;2023-07-13T09:44:13;6.88;;;3.75;;
67861;SDS011;54665;51.462;6.698;2023-07-13T09:46:19;7.35;;;3.88;;
67861;SDS011;54665;51.462;6.698;2023-07-13T09:48:21;8.73;;;4.15;;
67861;SDS011;54665;51.462;6.698;2023-07-13T09:50:21;11.07;;;3.93;;
67861;SDS011;54665;51.462;6.698;2023-07-13T09:52:21;9.67;;;3.57;;
67861;SDS011;54665;51.462;6.698;2023-07-13T09:54:23;8.53;;;3.80;;
67861;SDS011;54665;51.462;6.698;2023-07-13T09:56:28;7.35;;;3.80;;
67861;SDS011;54665;51.462;6.698;2023-07-13T09:58:29;6.10;;;3.05;;
67861;SDS011;54665;51.462;6.698;2023-07-13T10:00:30;5.97;;;3.47;;
67861;SDS011;54665;51.462;6.698;2023-07-13T10:02:32;7.63;;;3.20;;
67861;SDS011;54665;51.462;6.698;2023-07-13T10:04:34;6.55;;;3.13;;
67861;SDS011;54665;51.462;6.698;2023-07-13T10:06:34;7.50;;;3.10;;
67861;SDS011;54665;51.462;6.698;2023-07-13T10:08:35;6.43;;;2.93;;
67861;SDS011;54665;51.462;6.698;2023-07-13T10:10:35;7.43;;;2.60;;
67861;SDS011;54665;51.462;6.698;2023-07-13T10:12:36;6.03;;;2.63;;
67861;SDS011;54665;51.462;6.698;2023-07-13T10:14:38;5.55;;;2.50;;
67861;SDS011;54665;51.462;6.698;2023-07-13T10:16:39;6.32;;;2.53;;
67861;SDS011;54665;51.462;6.698;2023-07-13T10:19:03;8.13;;;2.70;;
67861;SDS011;54665;51.462;6.698;2023-07-13T10:21:10;6.03;;;2.83;;
67861;SDS011;54665;51.462;6.698;2023-07-13T10:23:15;6.22;;;2.75;;
67861;SDS011;54665;51.462;6.698;2023-07-13T10:25:25;5.93;;;2.67;;
67861;SDS011;54665;51.462;6.698;2023-07-13T10:27:33;6.70;;;2.78;;
67861;SDS011;54665;51.462;6.698;2023-07-13T10:32:12;6.93;;;2.40;;
67861;SDS011;54665;51.462;6.698;2023-07-13T10:34:13;5.55;;;2.17;;
67861;SDS011;54665;51.462;6.698;2023-07-13T10:36:16;4.55;;;2.28;;
67861;SDS011;54665;51.462;6.698;2023-07-13T10:38:22;5.88;;;2.28;;
67861;SDS011;54665;51.462;6.698;2023-07-13T10:40:25;6.27;;;2.40;;
67861;SDS011;54665;51.462;6.698;2023-07-13T10:42:33;4.57;;;2.20;;
67861;SDS011;54665;51.462;6.698;2023-07-13T10:44:36;6.07;;;2.33;;
67861;SDS011;54665;51.462;6.698;2023-07-13T10:46:37;4.93;;;2.50;;
67861;SDS011;54665;51.462;6.698;2023-07-13T10:48:38;5.57;;;2.33;;
67861;SDS011;54665;51.462;6.698;2023-07-13T10:50:40;4.38;;;2.10;;
67861;SDS011;54665;51.462;6.698;2023-07-13T10:52:47;4.00;;;2.17;;
67861;SDS011;54665;51.462;6.698;2023-07-13T10:54:49;4.63;;;2.20;;
67861;SDS011;54665;51.462;6.698;2023-07-13T10:56:50;4.23;;;2.20;;
67861;SDS011;54665;51.462;6.698;2023-07-13T10:59:05;4.38;;;2.20;;
67861;SDS011;54665;51.462;6.698;2023-07-13T11:01:10;5.47;;;2.13;;
67861;SDS011;54665;51.462;6.698;2023-07-13T11:03:13;5.15;;;2.20;;
67861;SDS011;54665;51.462;6.698;2023-07-13T11:07:26;6.40;;;2.38;;
67861;SDS011;54665;51.462;6.698;2023-07-13T11:11:38;8.57;;;2.70;;
67861;SDS011;54665;51.462;6.698;2023-07-13T11:15:48;4.53;;;2.30;;
67861;SDS011;54665;51.462;6.698;2023-07-13T11:17:49;7.32;;;2.15;;
67861;SDS011;54665;51.462;6.698;2023-07-13T11:19:51;4.00;;;2.20;;
67861;SDS011;54665;51.462;6.698;2023-07-13T11:24:13;6.13;;;2.20;;
67861;SDS011;54665;51.462;6.698;2023-07-13T11:28:38;4.13;;;2.30;;
67861;SDS011;54665;51.462;6.698;2023-07-13T11:35:12;4.30;;;1.90;;
67861;SDS011;54665;51.462;6.698;2023-07-13T11:37:16;4.57;;;1.90;;
67861;SDS011;54665;51.462;6.698;2023-07-13T11:39:27;5.07;;;2.03;;
67861;SDS011;54665;51.462;6.698;2023-07-13T11:41:30;6.43;;;2.20;;
67861;SDS011;54665;51.462;6.698;2023-07-13T11:43:35;3.17;;;1.90;;
67861;SDS011;54665;51.462;6.698;2023-07-13T11:45:35;4.80;;;1.80;;
67861;SDS011;54665;51.462;6.698;2023-07-13T11:47:39;4.47;;;1.90;;
67861;SDS011;54665;51.462;6.698;2023-07-13T11:49:44;5.63;;;1.93;;
67861;SDS011;54665;51.462;6.698;2023-07-13T11:51:45;4.25;;;1.88;;
67861;SDS011;54665;51.462;6.698;2023-07-13T11:53:47;4.82;;;2.00;;
67861;SDS011;54665;51.462;6.698;2023-07-13T11:55:50;4.23;;;2.17;;
67861;SDS011;54665;51.462;6.698;2023-07-13T11:59:54;4.65;;;1.88;;
67861;SDS011;54665;51.462;6.698;2023-07-13T12:01:55;2.60;;;1.80;;
67861;SDS011;54665;51.462;6.698;2023-07-13T12:04:08;5.17;;;2.00;;
67861;SDS011;54665;51.462;6.698;2023-07-13T12:06:30;4.03;;;1.90;;
67861;SDS011;54665;51.462;6.698;2023-07-13T12:08:37;3.80;;;1.98;;
67861;SDS011;54665;51.462;6.698;2023-07-13T12:10:39;4.40;;;2.00;;
67861;SDS011;54665;51.462;6.698;2023-07-13T12:12:40;4.07;;;2.00;;
67861;SDS011;54665;51.462;6.698;2023-07-13T12:14:46;4.05;;;1.90;;
67861;SDS011;54665;51.462;6.698;2023-07-13T12:16:51;3.50;;;1.75;;
67861;SDS011;54665;51.462;6.698;2023-07-13T12:18:52;3.77;;;2.00;;
67861;SDS011;54665;51.462;6.698;2023-07-13T12:20:57;3.53;;;1.83;;
67861;SDS011;54665;51.462;6.698;2023-07-13T12:22:58;7.20;;;2.10;;
67861;SDS011;54665;51.462;6.698;2023-07-13T12:24:59;6.22;;;2.05;;
67861;SDS011;54665;51.462;6.698;2023-07-13T12:27:00;5.13;;;2.17;;
67861;SDS011;54665;51.462;6.698;2023-07-13T12:29:04;3.08;;;1.90;;
67861;SDS011;54665;51.462;6.698;2023-07-13T12:31:18;5.43;;;1.90;;
67861;SDS011;54665;51.462;6.698;2023-07-13T12:33:26;3.60;;;1.80;;
67861;SDS011;54665;51.462;6.698;2023-07-13T12:35:29;7.13;;;2.13;;
67861;SDS011;54665;51.462;6.698;2023-07-13T12:37:33;3.83;;;1.70;;
67861;SDS011;54665;51.462;6.698;2023-07-13T12:39:36;7.28;;;2.00;;
67861;SDS011;54665;51.462;6.698;2023-07-13T12:41:38;3.30;;;1.60;;
67861;SDS011;54665;51.462;6.698;2023-07-13T12:43:38;2.83;;;1.70;;
67861;SDS011;54665;51.462;6.698;2023-07-13T12:45:39;3.60;;;1.73;;